sensor_id;sensor_type;location;lat;lon;timestamp;pressure;altitude;pressure_sealevel;temperature
80496;BMP180;69819;48.798;11.770;2024-03-23T00:54:50;96836.00;;;11.40
80496;BMP180;69819;48.798;11.770;2024-03-23T00:57:16;96805.00;;;11.30
80496;BMP180;69819;48.798;11.770;2024-03-23T00:59:42;96841.00;;;11.30
80496;BMP180;69819;48.798;11.770;2024-03-23T01:02:07;96839.00;;;11.30
80496;BMP180;69819;48.798;11.770;2024-03-23T01:04:33;96843.00;;;11.20
80496;BMP180;69819;48.798;11.770;2024-03-23T01:06:59;96835.00;;;11.20
80496;BMP180;69819;48.798;11.770;2024-03-23T01:09:24;96837.00;;;11.20
80496;BMP180;69819;48.798;11.770;2024-03-23T01:11:50;96814.00;;;11.10
80496;BMP180;69819;48.798;11.770;2024-03-23T01:14:16;96822.00;;;11.10
80496;BMP180;69819;48.798;11.770;2024-03-23T01:16:41;96818.00;;;11.10
80496;BMP180;69819;48.798;11.770;2024-03-23T01:19:07;96827.00;;;11.00
80496;BMP180;69819;48.798;11.770;2024-03-23T01:21:33;96834.00;;;10.90
80496;BMP180;69819;48.798;11.770;2024-03-23T01:23:59;96799.00;;;10.90
80496;BMP180;69819;48.798;11.770;2024-03-23T01:26:24;96767.00;;;10.90
80496;BMP180;69819;48.798;11.770;2024-03-23T01:28:50;96798.00;;;10.80
80496;BMP180;69819;48.798;11.770;2024-03-23T01:31:16;96798.00;;;10.80
80496;BMP180;69819;48.798;11.770;2024-03-23T01:33:41;96764.00;;;10.70
80496;BMP180;69819;48.798;11.770;2024-03-23T01:36:07;96787.00;;;10.70
80496;BMP180;69819;48.798;11.770;2024-03-23T01:38:33;96769.00;;;10.70
80496;BMP180;69819;48.798;11.770;2024-03-23T01:40:59;96793.00;;;10.60
80496;BMP180;69819;48.798;11.770;2024-03-23T01:43:25;96786.00;;;10.60
80496;BMP180;69819;48.798;11.770;2024-03-23T01:45:51;96771.00;;;10.60
80496;BMP180;69819;48.798;11.770;2024-03-23T01:48:20;96754.00;;;10.50
80496;BMP180;69819;48.798;11.770;2024-03-23T01:50:46;96729.00;;;10.40
80496;BMP180;69819;48.798;11.770;2024-03-23T01:53:14;96753.00;;;10.40
80496;BMP180;69819;48.798;11.770;2024-03-23T01:55:43;96781.00;;;10.40
80496;BMP180;69819;48.798;11.770;2024-03-23T01:58:09;96752.00;;;10.30
80496;BMP180;69819;48.798;11.770;2024-03-23T02:00:35;96772.00;;;10.30
80496;BMP180;69819;48.798;11.770;2024-03-23T02:03:01;96775.00;;;10.30
80496;BMP180;69819;48.798;11.770;2024-03-23T02:05:27;96741.00;;;10.20
80496;BMP180;69819;48.798;11.770;2024-03-23T02:07:53;96764.00;;;10.20
80496;BMP180;69819;48.798;11.770;2024-03-23T02:10:19;96758.00;;;10.10
80496;BMP180;69819;48.798;11.770;2024-03-23T02:12:44;96746.00;;;10.10
80496;BMP180;69819;48.798;11.770;2024-03-23T02:15:10;96755.00;;;10.00
80496;BMP180;69819;48.798;11.770;2024-03-23T02:17:36;96727.00;;;10.00
80496;BMP180;69819;48.798;11.770;2024-03-23T02:20:03;96720.00;;;9.90
80496;BMP180;69819;48.798;11.770;2024-03-23T02:22:38;96756.00;;;9.90
80496;BMP180;69819;48.798;11.770;2024-03-23T02:25:05;96721.00;;;9.80
80496;BMP180;69819;48.798;11.770;2024-03-23T02:27:32;96745.00;;;9.80
80496;BMP180;69819;48.798;11.770;2024-03-23T02:29:59;96663.00;;;9.80
80496;BMP180;69819;48.798;11.770;2024-03-23T02:32:24;96717.00;;;9.70
80496;BMP180;69819;48.798;11.770;2024-03-23T02:34:50;96701.00;;;9.70
80496;BMP180;69819;48.798;11.770;2024-03-23T02:37:16;96714.00;;;9.70
80496;BMP180;69819;48.798;11.770;2024-03-23T02:39:42;96719.00;;;9.60
80496;BMP180;69819;48.798;11.770;2024-03-23T02:42:07;96701.00;;;9.60
80496;BMP180;69819;48.798;11.770;2024-03-23T02:44:33;96711.00;;;9.60
80496;BMP180;69819;48.798;11.770;2024-03-23T02:46:59;96709.00;;;9.50
80496;BMP180;69819;48.798;11.770;2024-03-23T02:49:26;96651.00;;;9.50
80496;BMP180;69819;48.798;11.770;2024-03-23T02:51:52;96710.00;;;9.40
80496;BMP180;69819;48.798;11.770;2024-03-23T02:54:18;96692.00;;;9.40
80496;BMP180;69819;48.798;11.770;2024-03-23T02:56:44;96663.00;;;9.40
80496;BMP180;69819;48.798;11.770;2024-03-23T02:59:10;96699.00;;;9.40
80496;BMP180;69819;48.798;11.770;2024-03-23T03:01:35;96680.00;;;9.40
80496;BMP180;69819;48.798;11.770;2024-03-23T03:04:01;96657.00;;;9.30
80496;BMP180;69819;48.798;11.770;2024-03-23T03:06:27;96678.00;;;9.30
80496;BMP180;69819;48.798;11.770;2024-03-23T03:08:53;96669.00;;;9.30
80496;BMP180;69819;48.798;11.770;2024-03-23T03:11:20;96672.00;;;9.30
80496;BMP180;69819;48.798;11.770;2024-03-23T03:13:45;96669.00;;;9.30
80496;BMP180;69819;48.798;11.770;2024-03-23T03:16:12;96656.00;;;9.30
80496;BMP180;69819;48.798;11.770;2024-03-23T03:18:38;96617.00;;;9.40
80496;BMP180;69819;48.798;11.770;2024-03-23T03:21:05;96623.00;;;9.40
80496;BMP180;69819;48.798;11.770;2024-03-23T03:23:39;96661.00;;;9.40
80496;BMP180;69819;48.798;11.770;2024-03-23T03:26:06;96655.00;;;9.30
80496;BMP180;69819;48.798;11.770;2024-03-23T03:28:32;96655.00;;;9.30
80496;BMP180;69819;48.798;11.770;2024-03-23T03:30:59;96632.00;;;9.30
80496;BMP180;69819;48.798;11.770;2024-03-23T03:33:27;96635.00;;;9.30
80496;BMP180;69819;48.798;11.770;2024-03-23T03:35:53;96631.00;;;9.30
80496;BMP180;69819;48.798;11.770;2024-03-23T03:38:19;96628.00;;;9.30
80496;BMP180;69819;48.798;11.770;2024-03-23T03:40:45;96598.00;;;9.30
80496;BMP180;69819;48.798;11.770;2024-03-23T03:43:11;96614.00;;;9.30
80496;BMP180;69819;48.798;11.770;2024-03-23T03:45:37;96624.00;;;9.30
80496;BMP180;69819;48.798;11.770;2024-03-23T03:48:03;96593.00;;;9.30
80496;BMP180;69819;48.798;11.770;2024-03-23T03:50:28;96623.00;;;9.40
80496;BMP180;69819;48.798;11.770;2024-03-23T03:52:54;96622.00;;;9.50
80496;BMP180;69819;48.798;11.770;2024-03-23T03:55:20;96619.00;;;9.60
80496;BMP180;69819;48.798;11.770;2024-03-23T03:57:45;96591.00;;;9.60
80496;BMP180;69819;48.798;11.770;2024-03-23T04:00:12;96575.00;;;9.70
80496;BMP180;69819;48.798;11.770;2024-03-23T04:02:38;96581.00;;;9.80
80496;BMP180;69819;48.798;11.770;2024-03-23T04:05:05;96586.00;;;9.90
80496;BMP180;69819;48.798;11.770;2024-03-23T04:07:31;96597.00;;;9.90
80496;BMP180;69819;48.798;11.770;2024-03-23T04:09:57;96583.00;;;10.00
80496;BMP180;69819;48.798;11.770;2024-03-23T04:12:24;96595.00;;;10.00
80496;BMP180;69819;48.798;11.770;2024-03-23T04:14:49;96595.00;;;10.00
80496;BMP180;69819;48.798;11.770;2024-03-23T04:17:15;96570.00;;;10.00
80496;BMP180;69819;48.798;11.770;2024-03-23T04:19:42;96582.00;;;10.00
80496;BMP180;69819;48.798;11.770;2024-03-23T04:22:07;96580.00;;;10.00
80496;BMP180;69819;48.798;11.770;2024-03-23T04:24:33;96561.00;;;10.00
80496;BMP180;69819;48.798;11.770;2024-03-23T04:26:59;96563.00;;;10.10
80496;BMP180;69819;48.798;11.770;2024-03-23T04:29:25;96536.00;;;10.10
80496;BMP180;69819;48.798;11.770;2024-03-23T04:31:52;96547.00;;;10.10
80496;BMP180;69819;48.798;11.770;2024-03-23T04:34:18;96523.00;;;10.20
80496;BMP180;69819;48.798;11.770;2024-03-23T04:36:44;96552.00;;;10.20
80496;BMP180;69819;48.798;11.770;2024-03-23T04:39:10;96515.00;;;10.20
80496;BMP180;69819;48.798;11.770;2024-03-23T04:41:35;96550.00;;;10.30
80496;BMP180;69819;48.798;11.770;2024-03-23T04:44:01;96537.00;;;10.30
80496;BMP180;69819;48.798;11.770;2024-03-23T04:46:27;96565.00;;;10.40
80496;BMP180;69819;48.798;11.770;2024-03-23T04:48:53;96527.00;;;10.40
80496;BMP180;69819;48.798;11.770;2024-03-23T04:51:23;96550.00;;;10.40
80496;BMP180;69819;48.798;11.770;2024-03-23T04:53:49;96543.00;;;10.40
80496;BMP180;69819;48.798;11.770;2024-03-23T04:56:18;96517.00;;;10.50
80496;BMP180;69819;48.798;11.770;2024-03-23T04:58:44;96550.00;;;10.50
80496;BMP180;69819;48.798;11.770;2024-03-23T05:01:11;96515.00;;;10.50
80496;BMP180;69819;48.798;11.770;2024-03-23T05:03:37;96545.00;;;10.50
80496;BMP180;69819;48.798;11.770;2024-03-23T05:06:03;96528.00;;;10.50
80496;BMP180;69819;48.798;11.770;2024-03-23T05:08:30;96542.00;;;10.50
80496;BMP180;69819;48.798;11.770;2024-03-23T05:10:56;96484.00;;;10.50
80496;BMP180;69819;48.798;11.770;2024-03-23T05:13:22;96500.00;;;10.60
80496;BMP180;69819;48.798;11.770;2024-03-23T05:15:53;96538.00;;;10.50
80496;BMP180;69819;48.798;11.770;2024-03-23T05:18:20;96493.00;;;10.60
80496;BMP180;69819;48.798;11.770;2024-03-23T05:20:45;96479.00;;;10.60
80496;BMP180;69819;48.798;11.770;2024-03-23T05:23:11;96499.00;;;10.60
80496;BMP180;69819;48.798;11.770;2024-03-23T05:25:37;96497.00;;;10.70
80496;BMP180;69819;48.798;11.770;2024-03-23T05:28:03;96471.00;;;10.70
80496;BMP180;69819;48.798;11.770;2024-03-23T05:30:29;96511.00;;;10.70
80496;BMP180;69819;48.798;11.770;2024-03-23T05:32:55;96506.00;;;10.80
80496;BMP180;69819;48.798;11.770;2024-03-23T05:35:20;96509.00;;;10.80
80496;BMP180;69819;48.798;11.770;2024-03-23T05:37:46;96475.00;;;10.80
80496;BMP180;69819;48.798;11.770;2024-03-23T05:40:12;96487.00;;;10.80
80496;BMP180;69819;48.798;11.770;2024-03-23T05:42:41;96512.00;;;10.90
80496;BMP180;69819;48.798;11.770;2024-03-23T05:45:07;96492.00;;;10.90
80496;BMP180;69819;48.798;11.770;2024-03-23T05:47:33;96531.00;;;10.90
80496;BMP180;69819;48.798;11.770;2024-03-23T05:49:59;96496.00;;;10.90
80496;BMP180;69819;48.798;11.770;2024-03-23T05:52:25;96498.00;;;11.00
80496;BMP180;69819;48.798;11.770;2024-03-23T05:54:51;96496.00;;;11.00
80496;BMP180;69819;48.798;11.770;2024-03-23T05:57:17;96475.00;;;11.00
80496;BMP180;69819;48.798;11.770;2024-03-23T05:59:44;96437.00;;;11.10
80496;BMP180;69819;48.798;11.770;2024-03-23T06:02:10;96454.00;;;11.10
80496;BMP180;69819;48.798;11.770;2024-03-23T06:04:36;96428.00;;;11.00
80496;BMP180;69819;48.798;11.770;2024-03-23T06:07:03;96430.00;;;11.00
80496;BMP180;69819;48.798;11.770;2024-03-23T06:09:31;96412.00;;;11.00
80496;BMP180;69819;48.798;11.770;2024-03-23T06:11:57;96421.00;;;11.10
80496;BMP180;69819;48.798;11.770;2024-03-23T06:14:23;96413.00;;;11.30
80496;BMP180;69819;48.798;11.770;2024-03-23T06:16:49;96383.00;;;11.80
80496;BMP180;69819;48.798;11.770;2024-03-23T06:19:15;96425.00;;;12.30
80496;BMP180;69819;48.798;11.770;2024-03-23T06:21:44;96425.00;;;13.00
80496;BMP180;69819;48.798;11.770;2024-03-23T06:24:11;96396.00;;;13.70
80496;BMP180;69819;48.798;11.770;2024-03-23T06:26:37;96414.00;;;14.40
80496;BMP180;69819;48.798;11.770;2024-03-23T06:29:03;96382.00;;;15.20
80496;BMP180;69819;48.798;11.770;2024-03-23T06:31:31;96384.00;;;15.90
80496;BMP180;69819;48.798;11.770;2024-03-23T06:33:57;96380.00;;;16.60
80496;BMP180;69819;48.798;11.770;2024-03-23T06:36:22;96411.00;;;17.30
80496;BMP180;69819;48.798;11.770;2024-03-23T06:38:48;96417.00;;;18.00
80496;BMP180;69819;48.798;11.770;2024-03-23T06:41:14;96409.00;;;18.80
80496;BMP180;69819;48.798;11.770;2024-03-23T06:43:40;96398.00;;;19.60
80496;BMP180;69819;48.798;11.770;2024-03-23T06:46:06;96398.00;;;20.30
80496;BMP180;69819;48.798;11.770;2024-03-23T06:48:32;96419.00;;;20.70
80496;BMP180;69819;48.798;11.770;2024-03-23T06:50:58;96390.00;;;21.00
80496;BMP180;69819;48.798;11.770;2024-03-23T06:53:24;96423.00;;;21.10
80496;BMP180;69819;48.798;11.770;2024-03-23T06:55:53;96405.00;;;21.10
80496;BMP180;69819;48.798;11.770;2024-03-23T06:58:25;96402.00;;;21.00
80496;BMP180;69819;48.798;11.770;2024-03-23T07:00:51;96397.00;;;20.80
80496;BMP180;69819;48.798;11.770;2024-03-23T07:03:17;96397.00;;;20.70
80496;BMP180;69819;48.798;11.770;2024-03-23T07:05:43;96394.00;;;20.50
80496;BMP180;69819;48.798;11.770;2024-03-23T07:08:09;96395.00;;;20.30
80496;BMP180;69819;48.798;11.770;2024-03-23T07:10:39;96391.00;;;20.10
80496;BMP180;69819;48.798;11.770;2024-03-23T07:13:05;96396.00;;;19.90
80496;BMP180;69819;48.798;11.770;2024-03-23T07:15:30;96411.00;;;19.70
80496;BMP180;69819;48.798;11.770;2024-03-23T07:17:56;96395.00;;;19.50
80496;BMP180;69819;48.798;11.770;2024-03-23T07:20:22;96426.00;;;19.20
80496;BMP180;69819;48.798;11.770;2024-03-23T07:22:48;96429.00;;;18.90
80496;BMP180;69819;48.798;11.770;2024-03-23T07:25:14;96432.00;;;18.60
80496;BMP180;69819;48.798;11.770;2024-03-23T07:27:40;96441.00;;;18.20
80496;BMP180;69819;48.798;11.770;2024-03-23T07:30:07;96469.00;;;17.80
80496;BMP180;69819;48.798;11.770;2024-03-23T07:32:35;96470.00;;;17.50
80496;BMP180;69819;48.798;11.770;2024-03-23T07:35:01;96506.00;;;17.20
80496;BMP180;69819;48.798;11.770;2024-03-23T07:37:27;96501.00;;;17.00
80496;BMP180;69819;48.798;11.770;2024-03-23T07:39:52;96517.00;;;16.70
80496;BMP180;69819;48.798;11.770;2024-03-23T07:42:18;96512.00;;;16.60
80496;BMP180;69819;48.798;11.770;2024-03-23T07:44:44;96540.00;;;16.30
80496;BMP180;69819;48.798;11.770;2024-03-23T07:47:12;96572.00;;;16.20
80496;BMP180;69819;48.798;11.770;2024-03-23T07:49:37;96572.00;;;16.00
80496;BMP180;69819;48.798;11.770;2024-03-23T07:52:05;96607.00;;;15.90
80496;BMP180;69819;48.798;11.770;2024-03-23T07:54:31;96611.00;;;15.70
80496;BMP180;69819;48.798;11.770;2024-03-23T07:56:57;96626.00;;;15.60
80496;BMP180;69819;48.798;11.770;2024-03-23T07:59:23;96620.00;;;15.50
80496;BMP180;69819;48.798;11.770;2024-03-23T08:01:48;96599.00;;;15.40
80496;BMP180;69819;48.798;11.770;2024-03-23T08:04:15;96588.00;;;15.30
80496;BMP180;69819;48.798;11.770;2024-03-23T08:06:40;96614.00;;;15.20
80496;BMP180;69819;48.798;11.770;2024-03-23T08:09:06;96628.00;;;15.10
80496;BMP180;69819;48.798;11.770;2024-03-23T08:11:32;96593.00;;;15.10
80496;BMP180;69819;48.798;11.770;2024-03-23T08:14:01;96589.00;;;15.00
80496;BMP180;69819;48.798;11.770;2024-03-23T08:16:30;96622.00;;;14.90
80496;BMP180;69819;48.798;11.770;2024-03-23T08:18:55;96626.00;;;14.90
80496;BMP180;69819;48.798;11.770;2024-03-23T08:21:21;96601.00;;;14.80
80496;BMP180;69819;48.798;11.770;2024-03-23T08:23:48;96617.00;;;14.80
80496;BMP180;69819;48.798;11.770;2024-03-23T08:26:15;96611.00;;;14.70
80496;BMP180;69819;48.798;11.770;2024-03-23T08:28:41;96596.00;;;14.70
80496;BMP180;69819;48.798;11.770;2024-03-23T08:31:10;96618.00;;;14.70
80496;BMP180;69819;48.798;11.770;2024-03-23T08:33:37;96609.00;;;14.70
80496;BMP180;69819;48.798;11.770;2024-03-23T08:36:06;96628.00;;;14.70
80496;BMP180;69819;48.798;11.770;2024-03-23T08:38:33;96617.00;;;14.80
80496;BMP180;69819;48.798;11.770;2024-03-23T08:41:01;96644.00;;;14.80
80496;BMP180;69819;48.798;11.770;2024-03-23T08:43:29;96615.00;;;14.80
80496;BMP180;69819;48.798;11.770;2024-03-23T08:46:13;96651.00;;;14.80
80496;BMP180;69819;48.798;11.770;2024-03-23T08:48:43;96643.00;;;14.80
80496;BMP180;69819;48.798;11.770;2024-03-23T08:51:10;96616.00;;;14.90
80496;BMP180;69819;48.798;11.770;2024-03-23T08:53:37;96605.00;;;14.90
80496;BMP180;69819;48.798;11.770;2024-03-23T08:56:04;96617.00;;;15.00
80496;BMP180;69819;48.798;11.770;2024-03-23T08:58:33;96650.00;;;15.00
80496;BMP180;69819;48.798;11.770;2024-03-23T09:01:11;96644.00;;;15.10
80496;BMP180;69819;48.798;11.770;2024-03-23T09:03:38;96672.00;;;15.20
80496;BMP180;69819;48.798;11.770;2024-03-23T09:06:13;96680.00;;;15.30
80496;BMP180;69819;48.798;11.770;2024-03-23T09:08:39;96686.00;;;15.50
80496;BMP180;69819;48.798;11.770;2024-03-23T09:11:13;96697.00;;;15.70
80496;BMP180;69819;48.798;11.770;2024-03-23T09:13:40;96679.00;;;15.80
80496;BMP180;69819;48.798;11.770;2024-03-23T09:16:07;96686.00;;;16.00
80496;BMP180;69819;48.798;11.770;2024-03-23T09:18:36;96685.00;;;16.10
80496;BMP180;69819;48.798;11.770;2024-03-23T09:21:11;96691.00;;;16.10
80496;BMP180;69819;48.798;11.770;2024-03-23T09:23:38;96649.00;;;16.20
80496;BMP180;69819;48.798;11.770;2024-03-23T09:26:05;96671.00;;;16.30
80496;BMP180;69819;48.798;11.770;2024-03-23T09:28:33;96686.00;;;16.50
80496;BMP180;69819;48.798;11.770;2024-03-23T09:31:06;96676.00;;;16.70
80496;BMP180;69819;48.798;11.770;2024-03-23T09:33:36;96681.00;;;16.90
80496;BMP180;69819;48.798;11.770;2024-03-23T09:36:06;96633.00;;;17.10
80496;BMP180;69819;48.798;11.770;2024-03-23T09:38:32;96685.00;;;17.30
80496;BMP180;69819;48.798;11.770;2024-03-23T09:40:59;96691.00;;;17.50
80496;BMP180;69819;48.798;11.770;2024-03-23T09:43:26;96694.00;;;17.70
80496;BMP180;69819;48.798;11.770;2024-03-23T09:45:53;96701.00;;;17.90
80496;BMP180;69819;48.798;11.770;2024-03-23T09:48:19;96710.00;;;18.00
80496;BMP180;69819;48.798;11.770;2024-03-23T09:50:45;96700.00;;;18.20
80496;BMP180;69819;48.798;11.770;2024-03-23T09:53:13;96714.00;;;18.30
80496;BMP180;69819;48.798;11.770;2024-03-23T09:55:41;96718.00;;;18.40
80496;BMP180;69819;48.798;11.770;2024-03-23T09:58:08;96724.00;;;18.60
80496;BMP180;69819;48.798;11.770;2024-03-23T10:00:37;96723.00;;;18.70
80496;BMP180;69819;48.798;11.770;2024-03-23T10:03:05;96718.00;;;18.80
80496;BMP180;69819;48.798;11.770;2024-03-23T10:05:33;96725.00;;;18.90
80496;BMP180;69819;48.798;11.770;2024-03-23T10:08:17;96742.00;;;19.00
80496;BMP180;69819;48.798;11.770;2024-03-23T10:10:45;96752.00;;;19.00
80496;BMP180;69819;48.798;11.770;2024-03-23T10:13:11;96763.00;;;19.10
80496;BMP180;69819;48.798;11.770;2024-03-23T10:15:58;96774.00;;;19.00
80496;BMP180;69819;48.798;11.770;2024-03-23T10:18:25;96765.00;;;19.00
80496;BMP180;69819;48.798;11.770;2024-03-23T10:21:10;96757.00;;;19.00
80496;BMP180;69819;48.798;11.770;2024-03-23T10:23:39;96784.00;;;19.00
80496;BMP180;69819;48.798;11.770;2024-03-23T10:26:23;96788.00;;;19.10
80496;BMP180;69819;48.798;11.770;2024-03-23T10:31:23;96792.00;;;19.40
80496;BMP180;69819;48.798;11.770;2024-03-23T10:33:49;96795.00;;;19.50
80496;BMP180;69819;48.798;11.770;2024-03-23T10:36:16;96799.00;;;19.70
80496;BMP180;69819;48.798;11.770;2024-03-23T10:38:44;96792.00;;;19.80
80496;BMP180;69819;48.798;11.770;2024-03-23T10:41:11;96796.00;;;19.90
80496;BMP180;69819;48.798;11.770;2024-03-23T10:43:37;96812.00;;;20.00
80496;BMP180;69819;48.798;11.770;2024-03-23T10:46:04;96801.00;;;20.20
80496;BMP180;69819;48.798;11.770;2024-03-23T10:48:33;96815.00;;;20.30
80496;BMP180;69819;48.798;11.770;2024-03-23T10:50:59;96805.00;;;20.30
80496;BMP180;69819;48.798;11.770;2024-03-23T10:53:28;96797.00;;;20.30
80496;BMP180;69819;48.798;11.770;2024-03-23T10:55:58;96788.00;;;20.30
80496;BMP180;69819;48.798;11.770;2024-03-23T10:58:30;96776.00;;;20.20
80496;BMP180;69819;48.798;11.770;2024-03-23T11:00:57;96821.00;;;20.10
80496;BMP180;69819;48.798;11.770;2024-03-23T11:03:34;96791.00;;;19.80
80496;BMP180;69819;48.798;11.770;2024-03-23T11:06:03;96798.00;;;19.50
80496;BMP180;69819;48.798;11.770;2024-03-23T11:08:37;96802.00;;;19.20
80496;BMP180;69819;48.798;11.770;2024-03-23T11:11:22;96794.00;;;18.80
80496;BMP180;69819;48.798;11.770;2024-03-23T11:13:52;96769.00;;;18.50
80496;BMP180;69819;48.798;11.770;2024-03-23T11:16:26;96812.00;;;18.20
80496;BMP180;69819;48.798;11.770;2024-03-23T11:19:36;96831.00;;;17.90
80496;BMP180;69819;48.798;11.770;2024-03-23T11:22:03;96859.00;;;17.80
80496;BMP180;69819;48.798;11.770;2024-03-23T11:24:31;96827.00;;;17.50
80496;BMP180;69819;48.798;11.770;2024-03-23T11:26:57;96844.00;;;17.50
80496;BMP180;69819;48.798;11.770;2024-03-23T11:29:27;96865.00;;;17.40
80496;BMP180;69819;48.798;11.770;2024-03-23T11:31:55;96856.00;;;17.30
80496;BMP180;69819;48.798;11.770;2024-03-23T11:34:22;96854.00;;;17.30
80496;BMP180;69819;48.798;11.770;2024-03-23T11:36:48;96902.00;;;17.40
80496;BMP180;69819;48.798;11.770;2024-03-23T11:39:18;96896.00;;;17.50
80496;BMP180;69819;48.798;11.770;2024-03-23T11:41:53;96893.00;;;17.60
80496;BMP180;69819;48.798;11.770;2024-03-23T11:44:24;96838.00;;;17.70
80496;BMP180;69819;48.798;11.770;2024-03-23T11:46:51;96883.00;;;17.80
80496;BMP180;69819;48.798;11.770;2024-03-23T11:49:25;96905.00;;;17.90
80496;BMP180;69819;48.798;11.770;2024-03-23T11:51:54;96895.00;;;17.90
80496;BMP180;69819;48.798;11.770;2024-03-23T11:54:25;96899.00;;;17.80
80496;BMP180;69819;48.798;11.770;2024-03-23T11:57:08;96869.00;;;17.80
80496;BMP180;69819;48.798;11.770;2024-03-23T11:59:37;96889.00;;;17.80
80496;BMP180;69819;48.798;11.770;2024-03-23T12:02:11;96883.00;;;17.70
80496;BMP180;69819;48.798;11.770;2024-03-23T12:04:38;96861.00;;;17.70
80496;BMP180;69819;48.798;11.770;2024-03-23T12:07:18;96867.00;;;17.60
80496;BMP180;69819;48.798;11.770;2024-03-23T12:10:04;96847.00;;;17.60
80496;BMP180;69819;48.798;11.770;2024-03-23T12:12:30;96830.00;;;17.60
80496;BMP180;69819;48.798;11.770;2024-03-23T12:15:07;96871.00;;;17.70
80496;BMP180;69819;48.798;11.770;2024-03-23T12:17:34;96861.00;;;17.70
80496;BMP180;69819;48.798;11.770;2024-03-23T12:20:01;96874.00;;;17.70
80496;BMP180;69819;48.798;11.770;2024-03-23T12:22:28;96885.00;;;17.60
80496;BMP180;69819;48.798;11.770;2024-03-23T12:24:55;96857.00;;;17.60
80496;BMP180;69819;48.798;11.770;2024-03-23T12:27:21;96879.00;;;17.40
80496;BMP180;69819;48.798;11.770;2024-03-23T12:29:46;96883.00;;;17.20
80496;BMP180;69819;48.798;11.770;2024-03-23T12:32:14;96898.00;;;17.10
80496;BMP180;69819;48.798;11.770;2024-03-23T12:34:40;96901.00;;;17.00
80496;BMP180;69819;48.798;11.770;2024-03-23T12:37:06;96879.00;;;16.90
80496;BMP180;69819;48.798;11.770;2024-03-23T12:39:32;96868.00;;;16.90
80496;BMP180;69819;48.798;11.770;2024-03-23T12:41:58;96852.00;;;16.80
80496;BMP180;69819;48.798;11.770;2024-03-23T12:44:24;96849.00;;;16.80
80496;BMP180;69819;48.798;11.770;2024-03-23T12:46:49;96871.00;;;16.80
80496;BMP180;69819;48.798;11.770;2024-03-23T12:49:15;96863.00;;;16.70
80496;BMP180;69819;48.798;11.770;2024-03-23T12:51:55;96866.00;;;16.60
80496;BMP180;69819;48.798;11.770;2024-03-23T12:54:22;96876.00;;;16.50
80496;BMP180;69819;48.798;11.770;2024-03-23T12:56:48;96830.00;;;16.40
80496;BMP180;69819;48.798;11.770;2024-03-23T12:59:14;96838.00;;;16.20
80496;BMP180;69819;48.798;11.770;2024-03-23T13:01:42;96850.00;;;16.00
80496;BMP180;69819;48.798;11.770;2024-03-23T13:04:09;96863.00;;;16.00
80496;BMP180;69819;48.798;11.770;2024-03-23T13:06:34;96870.00;;;15.90
80496;BMP180;69819;48.798;11.770;2024-03-23T13:09:04;96857.00;;;15.90
80496;BMP180;69819;48.798;11.770;2024-03-23T13:11:30;96875.00;;;16.00
80496;BMP180;69819;48.798;11.770;2024-03-23T13:13:56;96875.00;;;16.00
80496;BMP180;69819;48.798;11.770;2024-03-23T13:16:22;96876.00;;;15.90
80496;BMP180;69819;48.798;11.770;2024-03-23T13:18:48;96883.00;;;15.90
80496;BMP180;69819;48.798;11.770;2024-03-23T13:21:14;96844.00;;;15.90
80496;BMP180;69819;48.798;11.770;2024-03-23T13:23:40;96848.00;;;15.90
80496;BMP180;69819;48.798;11.770;2024-03-23T13:26:08;96854.00;;;15.90
80496;BMP180;69819;48.798;11.770;2024-03-23T13:28:34;96871.00;;;15.90
80496;BMP180;69819;48.798;11.770;2024-03-23T13:31:01;96863.00;;;15.90
80496;BMP180;69819;48.798;11.770;2024-03-23T13:33:30;96860.00;;;15.80
80496;BMP180;69819;48.798;11.770;2024-03-23T13:35:58;96868.00;;;15.80
80496;BMP180;69819;48.798;11.770;2024-03-23T13:38:24;96873.00;;;15.80
80496;BMP180;69819;48.798;11.770;2024-03-23T13:40:56;96873.00;;;15.70
80496;BMP180;69819;48.798;11.770;2024-03-23T13:43:23;96865.00;;;15.70
80496;BMP180;69819;48.798;11.770;2024-03-23T13:45:57;96879.00;;;15.60
80496;BMP180;69819;48.798;11.770;2024-03-23T13:48:25;96866.00;;;15.50
80496;BMP180;69819;48.798;11.770;2024-03-23T13:51:01;96891.00;;;15.40
80496;BMP180;69819;48.798;11.770;2024-03-23T13:53:27;96887.00;;;15.30
80496;BMP180;69819;48.798;11.770;2024-03-23T13:55:53;96885.00;;;15.20
80496;BMP180;69819;48.798;11.770;2024-03-23T13:58:20;96894.00;;;15.00
80496;BMP180;69819;48.798;11.770;2024-03-23T14:00:46;96872.00;;;14.90
80496;BMP180;69819;48.798;11.770;2024-03-23T14:03:13;96874.00;;;14.80
80496;BMP180;69819;48.798;11.770;2024-03-23T14:05:40;96904.00;;;14.60
80496;BMP180;69819;48.798;11.770;2024-03-23T14:08:08;96890.00;;;14.50
80496;BMP180;69819;48.798;11.770;2024-03-23T14:10:34;96873.00;;;14.40
80496;BMP180;69819;48.798;11.770;2024-03-23T14:13:03;96899.00;;;14.40
80496;BMP180;69819;48.798;11.770;2024-03-23T14:15:29;96889.00;;;14.30
80496;BMP180;69819;48.798;11.770;2024-03-23T14:17:59;96904.00;;;14.30
80496;BMP180;69819;48.798;11.770;2024-03-23T14:20:25;96907.00;;;14.20
80496;BMP180;69819;48.798;11.770;2024-03-23T14:22:52;96901.00;;;14.20
80496;BMP180;69819;48.798;11.770;2024-03-23T14:25:18;96889.00;;;14.20
80496;BMP180;69819;48.798;11.770;2024-03-23T14:27:45;96884.00;;;14.20
80496;BMP180;69819;48.798;11.770;2024-03-23T14:30:11;96862.00;;;14.20
80496;BMP180;69819;48.798;11.770;2024-03-23T14:32:38;96877.00;;;14.20
80496;BMP180;69819;48.798;11.770;2024-03-23T14:35:05;96894.00;;;14.10
80496;BMP180;69819;48.798;11.770;2024-03-23T14:37:32;96893.00;;;14.20
80496;BMP180;69819;48.798;11.770;2024-03-23T14:39:59;96856.00;;;14.10
80496;BMP180;69819;48.798;11.770;2024-03-23T14:42:25;96869.00;;;14.10
80496;BMP180;69819;48.798;11.770;2024-03-23T14:44:51;96833.00;;;14.10
80496;BMP180;69819;48.798;11.770;2024-03-23T14:47:18;96878.00;;;14.10
80496;BMP180;69819;48.798;11.770;2024-03-23T14:49:45;96879.00;;;14.00
80496;BMP180;69819;48.798;11.770;2024-03-23T14:52:19;96858.00;;;13.90
80496;BMP180;69819;48.798;11.770;2024-03-23T14:54:45;96877.00;;;13.90
80496;BMP180;69819;48.798;11.770;2024-03-23T14:57:12;96871.00;;;13.80